Time;durP1;ratioP1;P1;durP2;ratioP2;P2;SDS_P1;SDS_P2;PMS_P1;PMS_P2;Temp;Humidity;BMP_temperature;BMP_pressure;BME280_temperature;BME280_humidity;BME280_pressure;Samples;Min_cycle;Max_cycle;Signal;HPM_P1;HPM_P2
2022/07/19 00:01:51;;;;;;;4.70;1.60;;;27.00;68.00;;;;;;5033190;28;20021;-26
2022/07/19 00:04:17;;;;;;;2.13;1.50;;;27.00;68.10;;;;;;5033051;28;20475;-26
2022/07/19 00:06:42;;;;;;;4.05;1.40;;;27.00;68.00;;;;;;5033111;28;20029;-26
2022/07/19 00:09:08;;;;;;;1.98;1.45;;;27.00;68.10;;;;;;5032812;28;20025;-26
2022/07/19 00:11:33;;;;;;;2.85;1.70;;;27.00;68.10;;;;;;5032909;28;20022;-26
2022/07/19 00:13:59;;;;;;;5.10;1.45;;;27.00;68.10;;;;;;5033007;28;20430;-26
2022/07/19 00:16:25;;;;;;;2.30;1.50;;;27.00;68.20;;;;;;5032811;28;20091;-26
2022/07/19 00:18:51;;;;;;;2.67;1.60;;;27.00;68.10;;;;;;5032705;28;20108;-26
2022/07/19 00:21:16;;;;;;;5.00;1.73;;;27.00;68.20;;;;;;5032862;28;20040;-26
2022/07/19 00:23:42;;;;;;;3.75;1.52;;;26.90;68.10;;;;;;5032732;28;20083;-26
2022/07/19 00:26:08;;;;;;;3.78;1.35;;;26.90;68.10;;;;;;5032632;28;20495;-26
2022/07/19 00:28:33;;;;;;;4.45;1.60;;;26.90;68.20;;;;;;5032552;28;20026;-26
2022/07/19 00:30:59;;;;;;;3.35;1.50;;;26.90;68.20;;;;;;5032805;28;20806;-26
2022/07/19 00:33:25;;;;;;;1.70;1.40;;;26.90;68.30;;;;;;5033032;28;20522;-26
2022/07/19 00:35:50;;;;;;;3.00;1.50;;;26.90;68.30;;;;;;5032597;28;20390;-26
2022/07/19 00:38:16;;;;;;;4.38;1.48;;;26.90;68.30;;;;;;5032251;28;20025;-26
2022/07/19 00:40:42;;;;;;;1.83;1.30;;;26.90;68.30;;;;;;5032938;28;20033;-26
2022/07/19 00:43:09;;;;;;;2.83;1.50;;;26.80;68.20;;;;;;5032561;28;20104;-26
2022/07/19 00:45:35;;;;;;;3.60;1.52;;;26.80;68.30;;;;;;5014868;28;20021;-26
2022/07/19 00:48:02;;;;;;;4.75;1.40;;;26.80;68.30;;;;;;5032395;28;20053;-26
2022/07/19 00:50:28;;;;;;;3.25;1.90;;;26.80;68.30;;;;;;5032303;28;20117;-26
2022/07/19 00:53:01;;;;;;;2.67;1.42;;;26.80;68.30;;;;;;5031339;28;20455;-26
2022/07/19 00:55:29;;;;;;;4.63;1.65;;;26.80;68.30;;;;;;5032228;28;20357;-26
2022/07/19 00:57:56;;;;;;;2.55;1.80;;;26.80;68.30;;;;;;5032071;28;20083;-26
2022/07/19 01:00:23;;;;;;;3.70;1.70;;;26.80;68.40;;;;;;5032038;28;20068;-26
2022/07/19 01:02:50;;;;;;;1.48;1.33;;;26.80;68.40;;;;;;5032129;28;20026;-26
2022/07/19 01:05:16;;;;;;;4.68;1.75;;;26.70;68.30;;;;;;5032030;28;20155;-26
2022/07/19 01:07:42;;;;;;;3.58;1.60;;;26.70;68.40;;;;;;5031911;28;20518;-26
2022/07/19 01:10:10;;;;;;;2.25;1.48;;;26.70;68.40;;;;;;5031905;28;20021;-26
2022/07/19 01:12:37;;;;;;;6.05;1.80;;;26.80;68.50;;;;;;5032066;28;20018;-26
2022/07/19 01:15:13;;;;;;;4.55;1.30;;;26.70;68.30;;;;;;5031869;28;20033;-26
2022/07/19 01:17:39;;;;;;;2.42;1.50;;;26.70;68.30;;;;;;5032004;28;20028;-26
2022/07/19 01:20:05;;;;;;;5.05;1.80;;;26.70;68.30;;;;;;5031541;28;20116;-26
2022/07/19 01:22:31;;;;;;;4.07;1.63;;;26.70;68.40;;;;;;5031893;28;20483;-26
2022/07/19 01:24:56;;;;;;;2.15;1.45;;;26.70;68.40;;;;;;5031861;28;20075;-26
2022/07/19 01:27:22;;;;;;;2.45;1.52;;;26.70;68.50;;;;;;5031930;28;20458;-26
2022/07/19 01:29:48;;;;;;;3.42;1.60;;;26.70;68.40;;;;;;5031675;28;20029;-25
2022/07/19 01:32:13;;;;;;;3.72;1.40;;;26.70;68.50;;;;;;5031847;28;20463;-25
2022/07/19 01:34:39;;;;;;;2.88;1.85;;;26.70;68.50;;;;;;5031621;28;20061;-25
2022/07/19 01:37:04;;;;;;;3.13;1.70;;;26.70;68.50;;;;;;5031805;28;20026;-25
2022/07/19 01:39:30;;;;;;;2.38;1.50;;;26.70;68.40;;;;;;5031436;28;20064;-25
2022/07/19 01:41:56;;;;;;;1.95;1.50;;;26.70;68.50;;;;;;5031813;28;20047;-25
2022/07/19 01:44:21;;;;;;;2.78;1.80;;;26.60;68.40;;;;;;5031749;28;20482;-25
2022/07/19 01:46:47;;;;;;;2.92;1.60;;;26.60;68.40;;;;;;5031624;28;20017;-25
2022/07/19 01:49:12;;;;;;;3.22;1.73;;;26.60;68.40;;;;;;5031329;28;20026;-25
2022/07/19 01:51:38;;;;;;;2.97;1.73;;;26.60;68.50;;;;;;5031545;28;20038;-25
2022/07/19 01:54:04;;;;;;;2.78;1.67;;;26.60;68.50;;;;;;5031775;28;20304;-25
2022/07/19 01:56:29;;;;;;;4.00;1.85;;;26.60;68.50;;;;;;5031463;28;20040;-25
2022/07/19 01:58:55;;;;;;;4.03;1.75;;;26.60;68.60;;;;;;5031667;28;20103;-25
2022/07/19 02:01:20;;;;;;;4.43;1.63;;;26.60;68.60;;;;;;5031585;28;20029;-25
2022/07/19 02:03:46;;;;;;;2.97;1.55;;;26.50;68.50;;;;;;5034165;28;20209;-25
2022/07/19 02:06:13;;;;;;;2.17;1.42;;;26.50;68.50;;;;;;5035270;28;20021;-25
2022/07/19 02:08:40;;;;;;;3.10;1.67;;;26.60;68.60;;;;;;5035329;28;20024;-25
2022/07/19 02:13:50;;;;;;;3.10;1.60;;;26.50;68.60;;;;;;5035397;28;20044;-25
2022/07/19 02:16:16;;;;;;;3.40;1.85;;;26.50;68.60;;;;;;5035019;28;20037;-25
2022/07/19 02:18:42;;;;;;;2.78;1.65;;;26.50;68.60;;;;;;5034811;28;20033;-25
2022/07/19 02:21:07;;;;;;;2.78;1.60;;;26.50;68.60;;;;;;5035139;28;20029;-25
2022/07/19 02:23:33;;;;;;;3.75;2.10;;;26.50;68.60;;;;;;5035134;28;20057;-25
2022/07/19 02:25:58;;;;;;;4.25;1.70;;;26.40;69.40;;;;;;5017225;28;20554;-25
2022/07/19 02:28:24;;;;;;;4.18;1.75;;;26.50;68.70;;;;;;5034790;28;20029;-25
2022/07/19 02:30:50;;;;;;;2.63;1.80;;;26.50;68.70;;;;;;5034916;28;20030;-25
2022/07/19 02:33:15;;;;;;;2.10;1.58;;;26.40;68.60;;;;;;5034870;28;20380;-25
2022/07/19 02:35:41;;;;;;;5.53;1.70;;;26.40;68.60;;;;;;5034835;28;20459;-25
2022/07/19 02:38:07;;;;;;;3.30;1.70;;;26.40;68.70;;;;;;5034687;28;20033;-25
2022/07/19 02:40:32;;;;;;;2.45;1.63;;;26.40;68.70;;;;;;5034809;28;20022;-25
2022/07/19 02:42:58;;;;;;;4.05;1.80;;;26.40;68.70;;;;;;5034792;28;20025;-25
2022/07/19 02:45:23;;;;;;;2.63;1.85;;;26.40;68.70;;;;;;5034693;28;20029;-25
2022/07/19 02:47:49;;;;;;;3.25;1.80;;;26.40;68.80;;;;;;5034536;28;20030;-25
2022/07/19 02:50:15;;;;;;;6.10;2.00;;;26.40;68.80;;;;;;5034411;28;20506;-25
2022/07/19 02:52:40;;;;;;;3.05;1.50;;;26.40;68.80;;;;;;5034589;28;20394;-25
2022/07/19 02:55:06;;;;;;;2.80;2.00;;;26.40;68.80;;;;;;5034505;28;20026;-25
2022/07/19 02:57:32;;;;;;;3.22;1.73;;;26.40;68.80;;;;;;5034469;28;20414;-25
2022/07/19 02:59:58;;;;;;;2.83;1.83;;;26.40;68.80;;;;;;5034155;28;20033;-25
2022/07/19 03:02:23;;;;;;;3.28;1.75;;;26.30;68.80;;;;;;5034316;28;20048;-25
2022/07/19 03:04:50;;;;;;;3.42;1.95;;;26.30;68.80;;;;;;5034261;28;20079;-25
2022/07/19 03:07:15;;;;;;;3.10;1.80;;;26.30;68.90;;;;;;5034311;28;20068;-25
2022/07/19 03:09:41;;;;;;;2.80;1.88;;;26.30;68.80;;;;;;5034053;28;20029;-25
2022/07/19 03:12:07;;;;;;;4.35;1.83;;;26.30;68.90;;;;;;5034498;28;20108;-25
2022/07/19 03:14:33;;;;;;;3.92;1.90;;;26.30;68.80;;;;;;5032909;28;20025;-25
2022/07/19 03:16:58;;;;;;;2.95;1.90;;;26.30;68.90;;;;;;5034064;28;20112;-25
2022/07/19 03:19:26;;;;;;;6.30;2.03;;;26.30;68.90;;;;;;5033722;28;20470;-25
2022/07/19 03:21:52;;;;;;;5.95;1.98;;;26.30;68.90;;;;;;5034066;28;20032;-25
2022/07/19 03:24:18;;;;;;;2.70;1.75;;;26.30;68.90;;;;;;5034078;28;20113;-25
2022/07/19 03:26:44;;;;;;;2.92;1.85;;;26.30;68.90;;;;;;5033980;28;20045;-25
2022/07/19 03:29:09;;;;;;;3.70;1.70;;;26.20;68.90;;;;;;5033630;28;20025;-25
2022/07/19 03:31:35;;;;;;;4.07;2.13;;;26.20;68.90;;;;;;5033844;28;20037;-25
2022/07/19 03:34:00;;;;;;;2.83;1.90;;;26.20;68.90;;;;;;5033768;28;20132;-25
2022/07/19 03:36:26;;;;;;;4.05;1.95;;;26.20;69.00;;;;;;5033696;28;20044;-25
2022/07/19 03:38:52;;;;;;;2.97;1.70;;;26.20;69.00;;;;;;5033427;28;20033;-25
2022/07/19 03:41:17;;;;;;;3.78;2.00;;;26.20;69.00;;;;;;5033732;28;20438;-25
2022/07/19 03:43:43;;;;;;;2.38;1.73;;;26.20;69.80;;;;;;5033621;28;20028;-25
2022/07/19 03:46:09;;;;;;;3.42;1.88;;;26.20;69.00;;;;;;5033415;28;20036;-25
2022/07/19 03:48:34;;;;;;;2.80;1.90;;;26.20;69.00;;;;;;5033269;28;20026;-25
2022/07/19 03:51:00;;;;;;;5.65;2.17;;;26.10;69.00;;;;;;5033548;28;20029;-25
2022/07/19 03:53:25;;;;;;;3.95;2.33;;;26.10;69.00;;;;;;5033459;28;20025;-25
2022/07/19 03:55:51;;;;;;;3.38;2.33;;;26.10;69.00;;;;;;5015514;28;20025;-25
2022/07/19 03:58:17;;;;;;;4.78;2.40;;;26.10;69.00;;;;;;5033004;28;20080;-25
2022/07/19 04:00:45;;;;;;;4.80;2.25;;;26.10;69.80;;;;;;5033188;28;20045;-25
2022/07/19 04:03:11;;;;;;;3.58;2.40;;;26.10;69.10;;;;;;5033202;28;20014;-25
2022/07/19 04:05:36;;;;;;;6.03;2.25;;;26.10;69.10;;;;;;5033115;28;20112;-25
2022/07/19 04:08:02;;;;;;;3.60;2.30;;;26.10;70.00;;;;;;5033073;28;20029;-25
2022/07/19 04:10:28;;;;;;;3.88;2.10;;;26.00;69.10;;;;;;5032960;28;20413;-25
2022/07/19 04:12:53;;;;;;;4.28;1.85;;;26.00;69.20;;;;;;5033032;28;20033;-25
2022/07/19 04:15:19;;;;;;;2.30;1.92;;;26.00;69.20;;;;;;5032796;28;20034;-25
2022/07/19 04:17:45;;;;;;;3.83;2.00;;;26.00;69.20;;;;;;5032870;28;20092;-25
2022/07/19 04:20:11;;;;;;;3.90;2.10;;;26.00;69.20;;;;;;5032738;28;20376;-25
2022/07/19 04:22:36;;;;;;;2.42;1.80;;;26.00;69.20;;;;;;5033053;28;20383;-25
2022/07/19 04:25:03;;;;;;;5.60;2.05;;;26.00;69.30;;;;;;5032743;28;20091;-25
2022/07/19 04:27:30;;;;;;;3.83;2.22;;;25.90;69.30;;;;;;5032543;28;20025;-25
2022/07/19 04:29:56;;;;;;;3.53;2.08;;;25.90;69.20;;;;;;5032454;28;20021;-25
2022/07/19 04:32:22;;;;;;;2.80;1.90;;;26.00;69.40;;;;;;5032667;28;20028;-25
2022/07/19 04:34:48;;;;;;;2.75;2.10;;;25.90;69.30;;;;;;5032579;28;20030;-25
2022/07/19 04:37:14;;;;;;;6.30;2.25;;;25.90;69.30;;;;;;5032611;28;20096;-25
2022/07/19 04:39:40;;;;;;;2.95;2.00;;;25.90;69.30;;;;;;5032318;28;20113;-25
2022/07/19 04:42:06;;;;;;;5.70;2.10;;;25.90;69.40;;;;;;5032534;28;20519;-25
2022/07/19 04:44:31;;;;;;;3.60;1.85;;;25.90;69.40;;;;;;5032346;28;20033;-25
2022/07/19 04:46:57;;;;;;;4.22;2.05;;;25.90;69.40;;;;;;5032288;28;20013;-25
2022/07/19 04:49:23;;;;;;;4.05;2.25;;;25.90;69.40;;;;;;5031998;28;20063;-25
2022/07/19 04:51:48;;;;;;;2.63;1.83;;;25.90;69.40;;;;;;5032165;28;20109;-25
2022/07/19 04:54:14;;;;;;;3.05;2.13;;;25.90;69.50;;;;;;5032324;28;20029;-25
2022/07/19 04:56:40;;;;;;;4.53;1.77;;;25.80;69.40;;;;;;5032118;28;20100;-25
2022/07/19 04:59:05;;;;;;;2.22;1.77;;;25.80;69.40;;;;;;5031966;28;20022;-25
2022/07/19 05:01:32;;;;;;;4.35;1.92;;;25.80;69.40;;;;;;5032080;28;20059;-25
2022/07/19 05:03:58;;;;;;;3.33;2.10;;;25.80;69.50;;;;;;5032147;28;20030;-25
2022/07/19 05:06:24;;;;;;;2.03;1.83;;;25.90;69.60;;;;;;5032065;28;20053;-25
2022/07/19 05:08:52;;;;;;;2.83;1.60;;;25.90;69.60;;;;;;5031807;28;20033;-25
2022/07/19 05:11:18;;;;;;;2.90;2.03;;;25.80;69.50;;;;;;5031996;28;20386;-25
2022/07/19 05:13:43;;;;;;;3.33;2.30;;;25.80;69.60;;;;;;5031994;28;20021;-25
2022/07/19 05:16:09;;;;;;;4.85;2.00;;;25.80;69.50;;;;;;5032274;28;20034;-25
2022/07/19 05:18:35;;;;;;;5.07;2.30;;;25.90;69.70;;;;;;5031682;28;20590;-25
2022/07/19 05:21:00;;;;;;;3.60;2.10;;;25.90;69.70;;;;;;5032060;28;20029;-25
2022/07/19 05:23:26;;;;;;;3.17;1.90;;;25.80;69.60;;;;;;5031934;28;20103;-25
2022/07/19 05:25:52;;;;;;;3.20;2.30;;;25.90;69.80;;;;;;5031735;28;20467;-25
2022/07/19 05:28:17;;;;;;;3.50;1.85;;;25.80;69.70;;;;;;5031539;28;20040;-25
2022/07/19 05:30:43;;;;;;;4.78;2.05;;;25.80;69.70;;;;;;5031754;28;20057;-25
2022/07/19 05:33:09;;;;;;;4.70;1.85;;;25.90;69.80;;;;;;5031760;28;20030;-25
2022/07/19 05:35:35;;;;;;;5.47;2.08;;;25.80;70.10;;;;;;5031839;28;20032;-25
2022/07/19 05:38:01;;;;;;;5.03;2.03;;;25.40;71.60;;;;;;5032481;28;20030;-25
2022/07/19 05:40:27;;;;;;;6.22;2.25;;;24.80;72.90;;;;;;5035746;28;20021;-25
2022/07/19 05:42:52;;;;;;;4.50;2.20;;;24.40;74.30;;;;;;5035708;28;20025;-25
2022/07/19 05:45:18;;;;;;;7.45;2.00;;;24.00;75.70;;;;;;5035645;28;20087;-25
2022/07/19 05:47:43;;;;;;;4.93;1.98;;;23.70;76.70;;;;;;5035641;28;20032;-25
2022/07/19 05:50:09;;;;;;;6.03;2.20;;;23.60;77.80;;;;;;5035494;28;20028;-25
2022/07/19 05:52:35;;;;;;;5.43;2.40;;;23.50;78.40;;;;;;5035568;28;20025;-25
2022/07/19 05:55:00;;;;;;;8.73;2.42;;;23.40;78.70;;;;;;5035377;28;20379;-25
2022/07/19 05:57:26;;;;;;;6.70;2.40;;;23.30;79.20;;;;;;5035440;28;20021;-25
2022/07/19 05:59:53;;;;;;;12.95;2.50;;;23.20;79.60;;;;;;5035573;28;20021;-25
2022/07/19 06:02:19;;;;;;;6.28;2.63;;;23.20;80.70;;;;;;5035427;28;20021;-25
2022/07/19 06:04:45;;;;;;;5.88;2.40;;;23.20;80.30;;;;;;5017577;28;20083;-25
2022/07/19 06:07:10;;;;;;;12.93;2.65;;;23.20;80.70;;;;;;5035271;28;20032;-25
2022/07/19 06:09:36;;;;;;;5.03;2.33;;;23.20;81.00;;;;;;5035029;28;20071;-25
2022/07/19 06:12:02;;;;;;;7.85;2.20;;;23.30;81.10;;;;;;5035108;28;20112;-25
2022/07/19 06:14:28;;;;;;;6.43;2.25;;;23.30;81.10;;;;;;5035037;28;20505;-25
2022/07/19 06:16:53;;;;;;;12.85;2.53;;;23.30;81.30;;;;;;5035155;28;20038;-25
2022/07/19 06:19:19;;;;;;;10.10;2.40;;;23.30;81.90;;;;;;5034843;28;20520;-25
2022/07/19 06:21:45;;;;;;;10.00;2.50;;;23.30;82.20;;;;;;5035180;28;20033;-25
2022/07/19 06:24:11;;;;;;;4.15;2.33;;;23.40;81.60;;;;;;5035077;28;20029;-25
2022/07/19 06:26:36;;;;;;;8.07;2.50;;;23.70;80.60;;;;;;5034984;28;20022;-25
2022/07/19 06:29:02;;;;;;;6.25;2.53;;;24.00;79.90;;;;;;5034705;28;20394;-25
2022/07/19 06:31:28;;;;;;;4.88;1.92;;;24.20;79.20;;;;;;5034974;28;20029;-25
2022/07/19 06:33:54;;;;;;;6.78;2.08;;;24.40;78.60;;;;;;5034959;28;20028;-25
2022/07/19 06:36:20;;;;;;;4.38;2.38;;;24.60;78.00;;;;;;5034828;28;20032;-25
2022/07/19 06:38:47;;;;;;;4.70;1.92;;;24.70;77.60;;;;;;5034497;28;20021;-25
2022/07/19 06:41:14;;;;;;;3.63;2.10;;;24.90;77.20;;;;;;5034754;28;20056;-25
2022/07/19 06:43:40;;;;;;;7.45;2.10;;;24.90;76.80;;;;;;5034718;28;20044;-25
2022/07/19 06:46:06;;;;;;;3.97;2.25;;;25.00;76.50;;;;;;5034611;28;20072;-25
2022/07/19 06:48:32;;;;;;;3.95;2.00;;;25.10;77.20;;;;;;5034385;28;20054;-25
2022/07/19 06:50:58;;;;;;;4.28;2.35;;;25.20;76.20;;;;;;5034615;28;20450;-25
2022/07/19 06:53:24;;;;;;;6.72;2.20;;;25.20;76.10;;;;;;5034508;28;20056;-25
2022/07/19 06:55:49;;;;;;;4.03;1.90;;;25.30;76.00;;;;;;5034408;28;20061;-25
2022/07/19 06:58:15;;;;;;;5.25;2.20;;;25.30;75.90;;;;;;5034156;28;20060;-25
2022/07/19 07:00:41;;;;;;;5.07;1.98;;;25.40;75.90;;;;;;5034406;28;20033;-25
2022/07/19 07:03:07;;;;;;;3.92;2.10;;;25.40;75.80;;;;;;5034427;28;20055;-25
2022/07/19 07:05:33;;;;;;;27.50;3.20;;;25.40;75.70;;;;;;5034231;28;20060;-25
2022/07/19 07:07:58;;;;;;;26.52;2.97;;;25.30;75.90;;;;;;5034221;28;20018;-25
2022/07/19 07:10:24;;;;;;;32.38;2.78;;;25.20;76.30;;;;;;5034117;28;20055;-25
2022/07/19 07:12:50;;;;;;;19.63;3.13;;;25.10;76.20;;;;;;5034266;28;20053;-25
2022/07/19 07:15:16;;;;;;;18.38;2.53;;;25.20;76.20;;;;;;5034021;28;20462;-25
2022/07/19 07:17:42;;;;;;;22.90;3.15;;;25.20;76.10;;;;;;5034236;28;20017;-25
2022/07/19 07:20:08;;;;;;;20.63;2.97;;;25.30;76.00;;;;;;5033930;28;20406;-25
2022/07/19 07:22:35;;;;;;;15.55;2.60;;;25.40;75.80;;;;;;5016421;28;20411;-25
2022/07/19 07:25:02;;;;;;;9.50;2.30;;;25.40;75.60;;;;;;5034677;28;20026;-25
2022/07/19 07:27:27;;;;;;;18.58;2.85;;;25.40;75.40;;;;;;5034367;28;20013;-25
2022/07/19 07:29:54;;;;;;;13.23;2.50;;;25.50;75.40;;;;;;5033835;28;20493;-25
2022/07/19 07:32:19;;;;;;;28.95;2.90;;;25.50;75.20;;;;;;5034092;28;20029;-25
2022/07/19 07:34:46;;;;;;;11.65;2.28;;;25.50;75.10;;;;;;5033777;28;20056;-25
2022/07/19 07:37:11;;;;;;;9.57;2.10;;;25.50;75.00;;;;;;5033610;28;20033;-25
2022/07/19 07:39:38;;;;;;;10.75;2.55;;;25.50;74.90;;;;;;5033451;28;20022;-25
2022/07/19 07:42:04;;;;;;;25.52;2.00;;;25.50;74.80;;;;;;5033623;28;20156;-25
2022/07/19 07:44:30;;;;;;;10.15;2.15;;;25.50;72.90;;;;;;5033811;28;20406;-25
2022/07/19 07:46:56;;;;;;;13.23;2.28;;;25.50;72.70;;;;;;5033575;28;20052;-25
2022/07/19 07:49:22;;;;;;;10.93;2.33;;;25.60;72.80;;;;;;5033255;28;20037;-25
2022/07/19 07:51:47;;;;;;;11.57;2.35;;;25.60;72.90;;;;;;5033390;28;20078;-25
2022/07/19 07:54:13;;;;;;;8.50;2.20;;;25.60;73.00;;;;;;5033474;28;20104;-25
2022/07/19 07:56:39;;;;;;;14.48;2.47;;;25.60;73.00;;;;;;5033248;28;20029;-25
2022/07/19 07:59:05;;;;;;;10.88;2.03;;;25.60;73.00;;;;;;5033002;28;20029;-25
2022/07/19 08:01:31;;;;;;;7.15;2.00;;;25.60;73.00;;;;;;5032730;28;20556;-25
2022/07/19 08:03:57;;;;;;;9.27;1.92;;;25.70;73.10;;;;;;5033242;28;20387;-25
2022/07/19 08:06:22;;;;;;;10.27;1.90;;;25.70;73.10;;;;;;5032927;28;20032;-25
2022/07/19 08:08:48;;;;;;;9.43;2.05;;;25.70;73.10;;;;;;5032839;28;20392;-25
2022/07/19 08:11:14;;;;;;;8.00;1.80;;;25.70;73.10;;;;;;5033062;28;20470;-25
2022/07/19 08:13:39;;;;;;;10.18;1.92;;;25.70;73.00;;;;;;5033010;28;20025;-25
2022/07/19 08:16:06;;;;;;;11.43;2.35;;;25.70;73.00;;;;;;5033233;28;20038;-25
2022/07/19 08:18:32;;;;;;;7.28;1.77;;;25.80;72.90;;;;;;5032662;28;20026;-25
2022/07/19 08:20:58;;;;;;;11.15;2.00;;;25.80;72.90;;;;;;5032797;28;20368;-25
2022/07/19 08:23:23;;;;;;;8.30;2.03;;;25.80;72.80;;;;;;5032897;28;20032;-25
2022/07/19 08:25:49;;;;;;;7.75;2.05;;;25.80;72.80;;;;;;5032727;28;20112;-25
2022/07/19 08:28:14;;;;;;;4.60;1.88;;;25.80;72.70;;;;;;5032483;28;20064;-25
2022/07/19 08:30:40;;;;;;;6.60;1.80;;;25.90;72.60;;;;;;5032712;28;20029;-25
2022/07/19 08:33:08;;;;;;;6.80;1.73;;;25.90;72.50;;;;;;5032711;28;20053;-25
2022/07/19 08:35:34;;;;;;;7.70;1.60;;;25.80;72.30;;;;;;5032438;28;20075;-25
2022/07/19 08:38:00;;;;;;;3.05;1.50;;;25.90;72.40;;;;;;5032576;28;20028;-25
2022/07/19 08:40:27;;;;;;;4.22;1.60;;;25.90;72.20;;;;;;5032454;28;20022;-25
2022/07/19 08:42:57;;;;;;;4.28;1.60;;;25.90;72.20;;;;;;5032468;28;20026;-25
2022/07/19 08:45:24;;;;;;;3.80;1.65;;;25.90;72.00;;;;;;5032526;28;20083;-25
2022/07/19 08:47:50;;;;;;;7.13;1.65;;;25.90;72.00;;;;;;5032370;28;20162;-25
2022/07/19 08:50:16;;;;;;;4.85;1.70;;;26.00;72.00;;;;;;5032062;28;20112;-25
2022/07/19 08:52:42;;;;;;;5.40;1.70;;;26.00;71.90;;;;;;5032309;28;20112;-25
2022/07/19 08:55:08;;;;;;;4.03;1.40;;;26.00;71.50;;;;;;5032231;28;20402;-25
2022/07/19 09:00:18;;;;;;;4.47;1.63;;;26.10;71.10;;;;;;5032053;28;20390;-25
2022/07/19 09:03:12;;;;;;;4.05;1.63;;;26.10;71.20;;;;;;5032028;28;20026;-25
2022/07/19 09:05:38;;;;;;;4.78;1.70;;;26.10;71.10;;;;;;5032107;28;20048;-25
2022/07/19 09:08:11;;;;;;;4.55;1.50;;;26.10;71.00;;;;;;5031992;28;20500;-25
2022/07/19 09:10:40;;;;;;;4.20;1.50;;;26.10;71.00;;;;;;5031987;28;20483;-25
2022/07/19 09:13:15;;;;;;;3.15;1.58;;;26.10;70.90;;;;;;5031129;28;20026;-25
2022/07/19 09:15:54;;;;;;;4.70;1.40;;;26.20;70.90;;;;;;5032305;28;20086;-25
2022/07/19 09:18:34;;;;;;;2.85;1.45;;;26.20;71.00;;;;;;5031763;28;20030;-25
2022/07/19 09:21:05;;;;;;;3.47;1.50;;;26.20;70.70;;;;;;5031958;28;20112;-25
2022/07/19 09:23:32;;;;;;;4.75;1.38;;;26.20;70.70;;;;;;5031808;28;20096;-25
2022/07/19 09:26:01;;;;;;;4.60;1.50;;;26.30;70.80;;;;;;5031808;28;20232;-25
2022/07/19 09:28:29;;;;;;;5.55;1.83;;;26.20;70.50;;;;;;5031639;28;20425;-25
2022/07/19 09:30:56;;;;;;;3.20;1.33;;;26.30;70.50;;;;;;5014042;28;20483;-25
2022/07/19 09:33:30;;;;;;;7.07;1.55;;;26.30;70.50;;;;;;5031814;28;20108;-25
2022/07/19 09:36:00;;;;;;;;;;;26.30;70.50;;;;;;5032009;28;20479;-25
2022/07/19 09:38:27;;;;;;;4.72;1.80;;;26.30;70.30;;;;;;5031385;28;20054;-25
2022/07/19 09:41:14;;;;;;;2.65;1.30;;;26.40;70.50;;;;;;5031640;28;20376;-25
2022/07/19 09:43:50;;;;;;;4.78;1.65;;;26.40;70.30;;;;;;5031732;28;20148;-25
2022/07/19 09:46:37;;;;;;;2.88;1.50;;;26.40;70.20;;;;;;5031534;28;20414;-25
2022/07/19 09:49:17;;;;;;;5.18;1.50;;;26.50;70.10;;;;;;5031421;28;20021;-25
2022/07/19 09:51:48;;;;;;;5.35;1.17;;;26.40;70.00;;;;;;5031661;28;20029;-25
2022/07/19 09:54:17;;;;;;;3.83;1.42;;;26.50;69.90;;;;;;5031537;28;20017;-25
2022/07/19 09:56:44;;;;;;;2.22;1.15;;;26.50;69.80;;;;;;5031356;28;20431;-25
2022/07/19 09:59:11;;;;;;;4.28;1.48;;;26.50;69.50;;;;;;5031212;28;20128;-25
2022/07/19 10:01:38;;;;;;;8.52;1.60;;;26.60;69.70;;;;;;5031552;28;20021;-25
2022/07/19 10:04:08;;;;;;;4.78;1.20;;;26.60;69.60;;;;;;5031658;28;20371;-25
2022/07/19 10:06:34;;;;;;;5.47;1.55;;;26.60;69.60;;;;;;5031433;28;20029;-25
2022/07/19 10:09:02;;;;;;;1.70;1.20;;;26.60;69.50;;;;;;5031214;28;20036;-25
2022/07/19 10:11:30;;;;;;;4.97;1.33;;;26.60;69.50;;;;;;5031295;28;20040;-25
2022/07/19 10:13:56;;;;;;;4.35;1.67;;;26.70;69.60;;;;;;5031474;28;20088;-25
2022/07/19 10:16:31;;;;;;;1.88;1.30;;;26.60;69.50;;;;;;5031250;28;20034;-25
2022/07/19 10:19:08;;;;;;;3.00;1.40;;;26.70;69.70;;;;;;5031097;28;20326;-25
2022/07/19 10:21:35;;;;;;;3.92;1.40;;;26.70;69.60;;;;;;5031453;28;20025;-25
2022/07/19 10:24:02;;;;;;;3.10;1.45;;;26.70;69.50;;;;;;5014217;28;20026;-25
2022/07/19 10:26:36;;;;;;;3.17;1.20;;;26.70;69.40;;;;;;5035042;28;20036;-25
2022/07/19 10:29:15;;;;;;;6.88;1.70;;;26.70;69.40;;;;;;5034937;28;20017;-25
2022/07/19 10:31:42;;;;;;;3.63;1.30;;;26.80;69.30;;;;;;5035049;28;20124;-25
2022/07/19 10:34:11;;;;;;;6.43;1.83;;;26.80;69.10;;;;;;5034868;28;20017;-25
2022/07/19 10:36:38;;;;;;;4.78;1.48;;;26.80;69.00;;;;;;5034819;28;20124;-25
2022/07/19 10:39:35;;;;;;;6.45;1.50;;;26.80;69.00;;;;;;5034423;28;20025;-25
2022/07/19 10:42:17;;;;;;;5.13;1.58;;;26.80;69.00;;;;;;5034858;28;20025;-25
2022/07/19 10:44:55;;;;;;;5.63;1.67;;;26.80;69.00;;;;;;5034550;28;20091;-25
2022/07/19 10:47:39;;;;;;;6.43;1.98;;;26.90;69.20;;;;;;5034714;28;20023;-25
2022/07/19 10:50:09;;;;;;;2.95;1.30;;;26.90;69.10;;;;;;5034506;28;20034;-25
2022/07/19 10:52:36;;;;;;;2.90;1.52;;;26.90;69.00;;;;;;5034641;28;20029;-25
2022/07/19 10:55:22;;;;;;;2.95;1.30;;;26.90;69.00;;;;;;5034453;28;20021;-25
2022/07/19 10:58:07;;;;;;;4.45;1.45;;;26.90;68.90;;;;;;5034558;28;20096;-25
2022/07/19 11:00:47;;;;;;;2.28;1.40;;;26.90;68.90;;;;;;5034490;28;20026;-25
2022/07/19 11:03:22;;;;;;;4.88;1.60;;;27.00;68.80;;;;;;5034392;28;20032;-25
2022/07/19 11:05:49;;;;;;;2.42;1.30;;;27.00;68.70;;;;;;5034258;28;20071;-25
2022/07/19 11:08:15;;;;;;;3.45;1.50;;;27.00;68.50;;;;;;5034023;28;20022;-25
2022/07/19 11:10:41;;;;;;;6.03;1.70;;;27.00;68.50;;;;;;5034269;28;20080;-25
2022/07/19 11:13:07;;;;;;;4.57;1.20;;;27.00;68.30;;;;;;5034542;28;20418;-25
2022/07/19 11:15:33;;;;;;;6.13;1.75;;;27.00;68.10;;;;;;5056980;22;20171;-23
2022/07/19 11:18:02;;;;;;;2.80;1.40;;;27.00;68.10;;;;;;5035060;28;20482;-24
2022/07/19 11:20:33;;;;;;;3.85;1.63;;;27.10;68.00;;;;;;5034319;28;20068;-24
2022/07/19 11:23:00;;;;;;;4.10;1.75;;;27.10;67.70;;;;;;5034260;28;20033;-24
2022/07/19 11:25:26;;;;;;;4.75;1.50;;;27.10;67.60;;;;;;5034138;28;20029;-24
2022/07/19 11:27:52;;;;;;;3.95;1.60;;;27.10;67.60;;;;;;5016362;28;20466;-24
2022/07/19 11:30:22;;;;;;;5.47;1.55;;;27.10;67.50;;;;;;5034024;28;20025;-24
2022/07/19 11:32:53;;;;;;;4.43;1.55;;;27.10;67.40;;;;;;5034153;28;20032;-24
2022/07/19 11:35:18;;;;;;;2.78;1.80;;;27.10;67.40;;;;;;5033733;28;20021;-24
2022/07/19 11:37:44;;;;;;;3.70;1.50;;;27.10;67.70;;;;;;5034103;28;20432;-24
2022/07/19 11:40:11;;;;;;;5.03;1.55;;;27.10;67.20;;;;;;5033710;28;20079;-24
2022/07/19 11:42:42;;;;;;;2.67;1.48;;;27.10;67.20;;;;;;5033725;28;20067;-24
2022/07/19 11:45:13;;;;;;;4.10;1.67;;;27.20;67.20;;;;;;5034061;28;20018;-24
2022/07/19 11:47:47;;;;;;;3.70;1.60;;;27.20;67.10;;;;;;5033740;28;20128;-24
2022/07/19 11:50:18;;;;;;;3.97;1.83;;;27.20;67.00;;;;;;5033772;28;20497;-24
2022/07/19 11:52:44;;;;;;;7.18;1.70;;;27.20;67.00;;;;;;5033469;28;20041;-24
2022/07/19 11:55:10;;;;;;;4.75;1.40;;;27.20;67.00;;;;;;5016175;28;20032;-24
2022/07/19 11:57:36;;;;;;;2.80;1.25;;;27.20;66.90;;;;;;5033621;28;20029;-24
2022/07/19 12:00:03;;;;;;;3.38;1.48;;;27.20;66.80;;;;;;5033265;28;20156;-24
2022/07/19 12:02:29;;;;;;;4.65;1.60;;;27.30;66.80;;;;;;5033619;28;20476;-24
2022/07/19 12:04:55;;;;;;;2.35;1.60;;;27.30;66.70;;;;;;5033641;28;20053;-24
2022/07/19 12:07:21;;;;;;;2.85;1.55;;;27.30;66.70;;;;;;5033345;28;20036;-24
2022/07/19 12:09:47;;;;;;;4.07;1.88;;;27.30;66.60;;;;;;5033042;28;20112;-23
2022/07/19 12:12:15;;;;;;;2.97;1.55;;;27.40;66.70;;;;;;5033477;28;20029;-24
2022/07/19 12:14:41;;;;;;;5.07;1.45;;;27.30;66.60;;;;;;5033354;28;20028;-23
2022/07/19 12:17:17;;;;;;;4.45;1.58;;;27.30;66.60;;;;;;5015348;28;20487;-24
2022/07/19 12:19:45;;;;;;;4.35;1.80;;;27.30;66.50;;;;;;5032775;28;20494;-24
2022/07/19 12:22:34;;;;;;;4.57;1.63;;;27.30;66.50;;;;;;5032994;28;20080;-24
2022/07/19 12:25:00;;;;;;;3.80;1.67;;;27.40;66.50;;;;;;5033118;28;20030;-24
2022/07/19 12:27:29;;;;;;;4.88;1.90;;;27.30;66.40;;;;;;5033060;28;20101;-24
2022/07/19 12:29:55;;;;;;;3.97;1.85;;;27.30;66.40;;;;;;5032870;28;20475;-24
2022/07/19 12:32:45;;;;;;;2.33;1.50;;;27.40;66.40;;;;;;5033329;28;20582;-24
2022/07/19 12:35:15;;;;;;;5.25;1.52;;;27.40;66.40;;;;;;5032981;28;20044;-24
2022/07/19 12:37:45;;;;;;;3.50;1.58;;;27.40;66.40;;;;;;5033029;28;20041;-24
2022/07/19 12:40:21;;;;;;;5.47;2.05;;;27.40;66.40;;;;;;5032803;28;20013;-24
2022/07/19 12:42:49;;;;;;;5.45;1.70;;;27.40;66.30;;;;;;5032895;28;20064;-24
2022/07/19 12:45:18;;;;;;;3.70;1.85;;;27.40;66.20;;;;;;5033091;28;20021;-24
2022/07/19 12:47:45;;;;;;;7.45;1.77;;;27.40;66.20;;;;;;5032808;28;20032;-24
2022/07/19 12:50:19;;;;;;;5.93;1.80;;;27.40;66.20;;;;;;5032670;28;20398;-25
2022/07/19 12:52:44;;;;;;;6.03;1.77;;;27.40;66.20;;;;;;5032965;28;20501;-25